Time;durP1;ratioP1;P1;durP2;ratioP2;P2;SDS_P1;SDS_P2;PMS_P1;PMS_P2;Temp;Humidity;BMP_temperature;BMP_pressure;BME280_temperature;BME280_humidity;BME280_pressure;Samples;Min_cycle;Max_cycle;Signal;HPM_P1;HPM_P2
2023/01/13 00:00:22;;;;;;;;;0.00;0.00;;;;;;;;5018352;28;10014;-79
2023/01/13 00:02:52;;;;;;;;;0.00;0.00;;;;;;;;5001780;28;10085;-79
2023/01/13 00:05:20;;;;;;;;;0.00;0.00;;;;;;;;5001107;28;10026;-79
2023/01/13 00:07:48;;;;;;;;;0.00;0.00;;;;;;;;4999295;28;10960;-79
2023/01/13 00:10:16;;;;;;;;;0.00;0.00;;;;;;;;5000309;28;10034;-79
2023/01/13 00:12:45;;;;;;;;;0.00;0.00;;;;;;;;5000840;28;10189;-79
2023/01/13 00:15:13;;;;;;;;;2.00;0.00;;;;;;;;5004385;28;10153;-78
2023/01/13 00:17:41;;;;;;;;;2.00;1.00;;;;;;;;5000053;28;10255;-80
2023/01/13 00:20:10;;;;;;;;;0.00;0.00;;;;;;;;4985472;28;10193;-79
2023/01/13 00:22:37;;;;;;;;;0.00;0.00;;;;;;;;4997849;28;10188;-79
2023/01/13 00:25:05;;;;;;;;;0.00;0.00;;;;;;;;4999647;28;10621;-79
2023/01/13 00:27:33;;;;;;;;;0.00;0.00;;;;;;;;5001331;28;10181;-79
2023/01/13 00:30:02;;;;;;;;;0.00;0.00;;;;;;;;4999112;28;10314;-79
2023/01/13 00:32:30;;;;;;;;;0.00;0.00;;;;;;;;5022330;28;10232;-79
2023/01/13 00:34:57;;;;;;;;;0.00;0.00;;;;;;;;5018537;28;10204;-80
2023/01/13 00:37:25;;;;;;;;;0.00;0.00;;;;;;;;5022109;28;11119;-79
2023/01/13 00:39:53;;;;;;;;;0.00;0.00;;;;;;;;5020456;28;11089;-80
2023/01/13 00:45:08;;;;;;;;;0.00;0.00;;;;;;;;5020696;28;10183;-80
2023/01/13 00:47:35;;;;;;;;;0.00;0.00;;;;;;;;5020057;28;10207;-79
2023/01/13 00:50:02;;;;;;;;;1.00;0.00;;;;;;;;5022131;28;10174;-80
2023/01/13 00:52:32;;;;;;;;;1.00;0.00;;;;;;;;5018879;28;10045;-79
2023/01/13 00:54:59;;;;;;;;;0.00;0.00;;;;;;;;5019670;28;10113;-80
2023/01/13 00:57:27;;;;;;;;;0.00;0.00;;;;;;;;5017137;28;10171;-80
2023/01/13 00:59:54;;;;;;;;;0.00;0.00;;;;;;;;5023043;28;9984;-80
2023/01/13 01:02:23;;;;;;;;;0.00;0.00;;;;;;;;5021602;28;10109;-79
2023/01/13 01:04:51;;;;;;;;;1.00;0.00;;;;;;;;5020420;28;10161;-79
2023/01/13 01:07:18;;;;;;;;;0.00;0.00;;;;;;;;5021611;28;10071;-80
2023/01/13 01:09:46;;;;;;;;;2.00;0.00;;;;;;;;5022846;28;10029;-79
2023/01/13 01:12:13;;;;;;;;;0.00;0.00;;;;;;;;5020705;28;11160;-79
2023/01/13 01:14:41;;;;;;;;;0.00;0.00;;;;;;;;5020994;28;10233;-80
2023/01/13 01:17:08;;;;;;;;;1.00;0.00;;;;;;;;5004099;28;10137;-79
2023/01/13 01:19:37;;;;;;;;;0.00;0.00;;;;;;;;5019410;28;10250;-79
2023/01/13 01:22:05;;;;;;;;;0.00;0.00;;;;;;;;5023034;28;10114;-80
2023/01/13 01:24:32;;;;;;;;;0.00;0.00;;;;;;;;5020494;28;10081;-79
2023/01/13 01:27:00;;;;;;;;;1.00;0.00;;;;;;;;5022343;28;10131;-79
2023/01/13 01:29:27;;;;;;;;;0.50;0.00;;;;;;;;5020658;28;10126;-79
2023/01/13 01:31:55;;;;;;;;;0.00;0.00;;;;;;;;5017204;28;10125;-79
2023/01/13 01:34:22;;;;;;;;;0.00;0.00;;;;;;;;5018086;28;10147;-79
2023/01/13 01:36:51;;;;;;;;;0.00;0.00;;;;;;;;5019263;28;10081;-79
2023/01/13 01:39:19;;;;;;;;;0.00;0.00;;;;;;;;5020164;28;10161;-79
2023/01/13 01:44:52;;;;;;;;;1.00;0.00;;;;;;;;5019118;28;10114;-79
2023/01/13 01:47:21;;;;;;;;;0.00;0.00;;;;;;;;5018263;28;10154;-78
2023/01/13 01:49:49;;;;;;;;;0.00;0.00;;;;;;;;5015970;28;10189;-79
2023/01/13 01:52:20;;;;;;;;;0.00;0.00;;;;;;;;5020398;28;10179;-79
2023/01/13 01:54:51;;;;;;;;;0.50;0.00;;;;;;;;5019061;28;10109;-79
2023/01/13 01:57:21;;;;;;;;;0.00;0.00;;;;;;;;5019224;28;10917;-78
2023/01/13 01:59:49;;;;;;;;;1.00;0.00;;;;;;;;5017595;28;10095;-79
2023/01/13 02:02:17;;;;;;;;;1.00;0.00;;;;;;;;5018492;28;10058;-79
2023/01/13 02:04:50;;;;;;;;;0.00;0.00;;;;;;;;5019526;28;10845;-79
2023/01/13 02:07:22;;;;;;;;;0.00;0.00;;;;;;;;5017458;28;10048;-79
2023/01/13 02:09:50;;;;;;;;;0.00;0.00;;;;;;;;5018808;28;10157;-79
2023/01/13 02:12:30;;;;;;;;;0.00;0.00;;;;;;;;5018378;28;10236;-79
2023/01/13 02:15:01;;;;;;;;;0.00;0.00;;;;;;;;5018994;28;10250;-79
2023/01/13 02:17:39;;;;;;;;;0.00;0.00;;;;;;;;5019494;28;10118;-79
2023/01/13 02:20:25;;;;;;;;;0.00;0.00;;;;;;;;5017914;28;10842;-79
2023/01/13 02:26:15;;;;;;;;;0.00;0.00;;;;;;;;5020393;28;10126;-80
2023/01/13 02:31:48;;;;;;;;;0.00;0.00;;;;;;;;5019322;28;10545;-79
2023/01/13 02:34:19;;;;;;;;;0.00;0.00;;;;;;;;5017430;28;10992;-79
2023/01/13 02:36:52;;;;;;;;;2.25;0.00;;;;;;;;5017269;28;10226;-79
2023/01/13 02:39:25;;;;;;;;;1.00;0.00;;;;;;;;5017169;28;10243;-79
2023/01/13 02:44:46;;;;;;;;;0.00;0.00;;;;;;;;5016214;28;10186;-80
2023/01/13 02:47:19;;;;;;;;;0.00;0.00;;;;;;;;5021008;28;10282;-79
2023/01/13 02:49:50;;;;;;;;;1.00;0.00;;;;;;;;5016172;28;10353;-79
2023/01/13 02:52:21;;;;;;;;;0.00;0.00;;;;;;;;5014573;28;10455;-79
2023/01/13 02:54:53;;;;;;;;;2.00;0.00;;;;;;;;5015916;28;10451;-80
2023/01/13 02:57:21;;;;;;;;;1.00;0.00;;;;;;;;5017304;28;10445;-79
2023/01/13 02:59:49;;;;;;;;;0.00;0.00;;;;;;;;5017487;28;10401;-79
2023/01/13 03:02:20;;;;;;;;;0.00;0.00;;;;;;;;5019243;28;10377;-79
2023/01/13 03:04:53;;;;;;;;;0.00;0.00;;;;;;;;5018850;28;10353;-79
2023/01/13 03:07:54;;;;;;;;;0.00;0.00;;;;;;;;5020569;28;10436;-79
2023/01/13 03:10:33;;;;;;;;;1.00;1.00;;;;;;;;5023992;28;10434;-79
2023/01/13 03:13:07;;;;;;;;;0.00;0.00;;;;;;;;5021055;28;10373;-79
2023/01/13 03:15:42;;;;;;;;;1.50;0.75;;;;;;;;5020883;28;10469;-79
2023/01/13 03:18:19;;;;;;;;;0.00;0.00;;;;;;;;5022804;28;10376;-78
2023/01/13 03:20:57;;;;;;;;;0.00;0.00;;;;;;;;5020993;28;10301;-79
2023/01/13 03:23:30;;;;;;;;;1.00;0.00;;;;;;;;5020999;28;10470;-79
2023/01/13 03:26:04;;;;;;;;;1.25;1.25;;;;;;;;5021529;28;10404;-79
2023/01/13 03:28:36;;;;;;;;;2.75;1.50;;;;;;;;5022771;28;10456;-79
2023/01/13 03:31:07;;;;;;;;;2.25;1.00;;;;;;;;5020332;28;10427;-79
2023/01/13 03:33:44;;;;;;;;;1.50;1.00;;;;;;;;5021022;28;10462;-80
2023/01/13 03:36:13;;;;;;;;;0.00;0.00;;;;;;;;5018644;28;10396;-79
2023/01/13 03:38:43;;;;;;;;;0.25;0.25;;;;;;;;5022255;28;10365;-79
2023/01/13 03:41:16;;;;;;;;;0.25;0.25;;;;;;;;5021760;28;10371;-79
2023/01/13 03:46:37;;;;;;;;;4.00;0.75;;;;;;;;5021701;28;11119;-79
2023/01/13 03:49:10;;;;;;;;;1.25;0.00;;;;;;;;5022906;28;10383;-79
2023/01/13 03:51:39;;;;;;;;;0.75;0.75;;;;;;;;5022553;28;10399;-79
2023/01/13 03:54:11;;;;;;;;;3.00;0.00;;;;;;;;5020040;28;11094;-79
2023/01/13 03:56:43;;;;;;;;;1.75;0.00;;;;;;;;5022467;28;10298;-79
2023/01/13 03:59:13;;;;;;;;;0.00;0.00;;;;;;;;5021211;28;10390;-79
2023/01/13 04:01:45;;;;;;;;;0.00;0.00;;;;;;;;5019025;28;10439;-78
2023/01/13 04:04:19;;;;;;;;;0.50;0.50;;;;;;;;5019889;28;10837;-79
2023/01/13 04:06:51;;;;;;;;;0.00;0.00;;;;;;;;5020266;28;10237;-78
2023/01/13 04:09:24;;;;;;;;;0.50;0.50;;;;;;;;5021932;28;10320;-79
2023/01/13 04:11:56;;;;;;;;;0.00;0.00;;;;;;;;5020850;28;10411;-79
2023/01/13 04:14:25;;;;;;;;;0.00;0.00;;;;;;;;5020911;28;10262;-79
2023/01/13 04:16:53;;;;;;;;;1.00;1.00;;;;;;;;5018750;28;11093;-79
2023/01/13 04:19:22;;;;;;;;;0.50;0.50;;;;;;;;5019889;28;10169;-79
2023/01/13 04:21:49;;;;;;;;;0.00;0.00;;;;;;;;5020638;28;10308;-79
2023/01/13 04:24:17;;;;;;;;;1.75;1.00;;;;;;;;5020392;28;10271;-79
2023/01/13 04:26:44;;;;;;;;;0.25;0.25;;;;;;;;5021727;28;10223;-79
2023/01/13 04:29:12;;;;;;;;;0.00;0.00;;;;;;;;5020819;28;10361;-79
2023/01/13 04:31:39;;;;;;;;;0.25;0.25;;;;;;;;5020218;28;10200;-79
2023/01/13 04:34:07;;;;;;;;;1.00;0.00;;;;;;;;5021347;28;10193;-79
2023/01/13 04:36:36;;;;;;;;;2.00;0.50;;;;;;;;5022522;28;10228;-79
2023/01/13 04:39:04;;;;;;;;;1.00;0.00;;;;;;;;5005795;28;11461;-79
2023/01/13 04:41:56;;;;;;;;;0.00;0.00;;;;;;;;5023188;28;10240;-79
2023/01/13 04:44:19;;;;;;;;;0.00;0.00;;;;;;;;5021220;28;10377;-80
2023/01/13 04:46:46;;;;;;;;;0.75;0.75;;;;;;;;5020465;28;11161;-79
2023/01/13 04:49:14;;;;;;;;;0.25;0.00;;;;;;;;5019581;28;10426;-79
2023/01/13 04:51:43;;;;;;;;;0.25;0.25;;;;;;;;5014564;28;10391;-79
2023/01/13 04:54:11;;;;;;;;;0.00;0.00;;;;;;;;5021522;28;10407;-79
2023/01/13 04:56:38;;;;;;;;;3.00;0.00;;;;;;;;5018134;28;10319;-79
2023/01/13 04:59:07;;;;;;;;;1.00;0.00;;;;;;;;5019715;28;10226;-79
2023/01/13 05:01:35;;;;;;;;;2.50;0.25;;;;;;;;5020832;28;10283;-79
2023/01/13 05:04:02;;;;;;;;;1.50;0.00;;;;;;;;5020339;28;10321;-79
2023/01/13 05:06:31;;;;;;;;;1.75;0.00;;;;;;;;5020671;28;10521;-79
2023/01/13 05:09:00;;;;;;;;;0.00;0.00;;;;;;;;5020456;28;10366;-79
2023/01/13 05:17:00;;;;;;;;;0.25;0.00;;;;;;;;5016545;28;10285;-79
2023/01/13 05:19:28;;;;;;;;;0.00;0.00;;;;;;;;5021026;28;10375;-79
2023/01/13 05:27:28;;;;;;;;;1.00;0.00;;;;;;;;5019476;28;11149;-79
2023/01/13 05:29:56;;;;;;;;;2.25;0.00;;;;;;;;5018998;28;10411;-79
2023/01/13 05:32:26;;;;;;;;;0.00;0.00;;;;;;;;5019011;28;10351;-81
2023/01/13 05:34:54;;;;;;;;;0.00;0.00;;;;;;;;5019978;28;10478;-80
2023/01/13 05:37:22;;;;;;;;;0.00;0.00;;;;;;;;5021526;28;10479;-79
2023/01/13 05:45:20;;;;;;;;;1.00;0.00;;;;;;;;5018681;28;10447;-79
2023/01/13 05:47:47;;;;;;;;;0.00;0.00;;;;;;;;5017364;28;11168;-80
2023/01/13 05:50:16;;;;;;;;;1.00;0.00;;;;;;;;5021530;28;11263;-78
2023/01/13 05:52:43;;;;;;;;;0.00;0.00;;;;;;;;5015140;28;10434;-79
2023/01/13 05:55:13;;;;;;;;;0.00;0.00;;;;;;;;4998438;28;10531;-79
2023/01/13 05:57:40;;;;;;;;;0.00;0.00;;;;;;;;5018300;28;10471;-81
2023/01/13 06:00:10;;;;;;;;;1.00;1.00;;;;;;;;5015886;28;10518;-80
2023/01/13 06:02:38;;;;;;;;;2.00;1.00;;;;;;;;4994693;28;10655;-82
2023/01/13 06:05:06;;;;;;;;;2.00;0.00;;;;;;;;4994900;28;10522;-80
2023/01/13 06:07:33;;;;;;;;;0.50;0.25;;;;;;;;5000779;28;10686;-80
2023/01/13 06:10:01;;;;;;;;;2.00;1.00;;;;;;;;4996886;28;10607;-79
2023/01/13 06:12:31;;;;;;;;;1.00;1.00;;;;;;;;5000567;28;10756;-80
2023/01/13 06:15:00;;;;;;;;;2.00;1.00;;;;;;;;4996921;28;10600;-80
2023/01/13 06:17:30;;;;;;;;;1.00;1.00;;;;;;;;4996855;28;10570;-79
2023/01/13 06:19:58;;;;;;;;;0.50;0.50;;;;;;;;4995097;28;10557;-81
2023/01/13 06:22:29;;;;;;;;;1.00;1.00;;;;;;;;4996037;28;10553;-79
2023/01/13 06:24:57;;;;;;;;;3.00;0.00;;;;;;;;5000094;28;10626;-80
2023/01/13 06:27:25;;;;;;;;;0.50;0.50;;;;;;;;4994887;28;10557;-79
2023/01/13 06:29:55;;;;;;;;;2.50;0.25;;;;;;;;4995815;28;10546;-78
2023/01/13 06:32:27;;;;;;;;;0.00;0.00;;;;;;;;4997522;28;10537;-81
2023/01/13 06:35:02;;;;;;;;;1.00;1.00;;;;;;;;4997868;28;10455;-80
2023/01/13 06:37:31;;;;;;;;;2.00;1.00;;;;;;;;4996188;28;11395;-79
2023/01/13 06:40:02;;;;;;;;;4.75;1.00;;;;;;;;4980949;28;10640;-80
2023/01/13 06:45:17;;;;;;;;;2.00;1.00;;;;;;;;5019419;28;10501;-79
2023/01/13 06:47:44;;;;;;;;;3.75;2.00;;;;;;;;5017392;28;11287;-79
2023/01/13 06:50:12;;;;;;;;;3.00;1.50;;;;;;;;5015514;28;10629;-80
2023/01/13 06:52:42;;;;;;;;;1.00;1.00;;;;;;;;5002688;28;10599;-81
2023/01/13 06:55:09;;;;;;;;;2.00;1.00;;;;;;;;5019472;28;10528;-79
2023/01/13 06:57:48;;;;;;;;;2.75;0.75;;;;;;;;5019145;28;10479;-78
2023/01/13 07:00:19;;;;;;;;;0.00;0.00;;;;;;;;5017397;28;10453;-80
2023/01/13 07:02:46;;;;;;;;;2.00;1.00;;;;;;;;5033116;28;10523;-77
2023/01/13 07:05:15;;;;;;;;;0.00;0.00;;;;;;;;5017782;28;11425;-77
2023/01/13 07:07:42;;;;;;;;;3.50;0.00;;;;;;;;5017124;28;10707;-78
2023/01/13 07:10:13;;;;;;;;;0.00;0.00;;;;;;;;5018894;28;11431;-78
2023/01/13 07:15:29;;;;;;;;;3.00;1.00;;;;;;;;4984357;28;10605;-76
2023/01/13 07:17:56;;;;;;;;;1.00;0.75;;;;;;;;5016450;28;10794;-74
2023/01/13 07:20:24;;;;;;;;;5.00;1.00;;;;;;;;5017773;28;10544;-77
2023/01/13 07:22:54;;;;;;;;;2.75;0.00;;;;;;;;5018331;28;10454;-75
2023/01/13 07:25:22;;;;;;;;;2.00;0.00;;;;;;;;5016693;28;10517;-76
2023/01/13 07:27:49;;;;;;;;;2.00;0.25;;;;;;;;5018072;28;10566;-75
2023/01/13 07:30:18;;;;;;;;;0.00;0.00;;;;;;;;5017096;28;10566;-74
2023/01/13 07:32:47;;;;;;;;;0.00;0.00;;;;;;;;5001744;28;10596;-73
2023/01/13 07:35:14;;;;;;;;;0.00;0.00;;;;;;;;4996260;28;10619;-72
2023/01/13 07:37:42;;;;;;;;;0.25;0.25;;;;;;;;4999052;28;10480;-72
2023/01/13 07:40:12;;;;;;;;;1.00;1.00;;;;;;;;4996737;28;10569;-72
2023/01/13 07:45:24;;;;;;;;;0.00;0.00;;;;;;;;4996893;28;11378;-75
2023/01/13 07:47:54;;;;;;;;;0.75;0.75;;;;;;;;4998031;28;10557;-73
2023/01/13 07:50:22;;;;;;;;;1.00;0.75;;;;;;;;4999604;28;10777;-73
2023/01/13 07:52:50;;;;;;;;;2.00;0.25;;;;;;;;4999723;28;10606;-73
2023/01/13 07:55:17;;;;;;;;;0.50;0.00;;;;;;;;5004438;28;10774;-74
2023/01/13 07:57:45;;;;;;;;;1.00;1.00;;;;;;;;5005853;28;10624;-73
2023/01/13 08:00:15;;;;;;;;;0.00;0.00;;;;;;;;5006070;28;10739;-73
2023/01/13 08:02:42;;;;;;;;;1.50;0.75;;;;;;;;4999951;28;10664;-73
2023/01/13 08:05:14;;;;;;;;;1.00;1.00;;;;;;;;5004873;28;10617;-73
2023/01/13 08:07:41;;;;;;;;;0.25;0.25;;;;;;;;5001038;28;10758;-73
2023/01/13 08:10:10;;;;;;;;;0.00;0.00;;;;;;;;5002661;28;10644;-73
2023/01/13 08:15:23;;;;;;;;;0.50;0.50;;;;;;;;4999817;28;10662;-74
2023/01/13 08:17:50;;;;;;;;;2.00;0.75;;;;;;;;5002586;28;10732;-73
2023/01/13 08:20:19;;;;;;;;;2.75;0.00;;;;;;;;5002800;28;10782;-73
2023/01/13 08:22:47;;;;;;;;;2.00;1.00;;;;;;;;4999931;28;10653;-74
2023/01/13 08:25:14;;;;;;;;;3.00;1.00;;;;;;;;4984989;28;10800;-73
2023/01/13 08:27:42;;;;;;;;;1.00;1.00;;;;;;;;5001584;28;10739;-74
2023/01/13 08:30:11;;;;;;;;;1.00;1.00;;;;;;;;5004493;28;10594;-74
2023/01/13 08:32:39;;;;;;;;;1.50;1.50;;;;;;;;5002744;28;10769;-74
2023/01/13 08:35:07;;;;;;;;;1.75;1.00;;;;;;;;4999424;28;10637;-74
2023/01/13 08:37:36;;;;;;;;;1.00;1.00;;;;;;;;5001059;28;10654;-74
2023/01/13 08:40:04;;;;;;;;;3.00;1.50;;;;;;;;5003178;28;10692;-74
2023/01/13 08:42:32;;;;;;;;;1.50;1.50;;;;;;;;5000348;28;10717;-74
2023/01/13 08:44:59;;;;;;;;;4.00;1.00;;;;;;;;5003120;28;10545;-74
2023/01/13 08:47:28;;;;;;;;;2.25;1.00;;;;;;;;5001787;28;10549;-74
2023/01/13 08:49:56;;;;;;;;;0.25;0.25;;;;;;;;4998466;28;10583;-76
2023/01/13 08:52:27;;;;;;;;;2.75;1.00;;;;;;;;5001933;28;10480;-74
2023/01/13 08:54:56;;;;;;;;;1.00;1.00;;;;;;;;5002203;28;10393;-79
2023/01/13 08:57:26;;;;;;;;;2.75;1.00;;;;;;;;5001987;28;10474;-74
2023/01/13 08:59:53;;;;;;;;;1.00;1.00;;;;;;;;5001030;28;10688;-74
2023/01/13 09:02:22;;;;;;;;;2.25;1.00;;;;;;;;5000720;28;10484;-75
2023/01/13 09:04:50;;;;;;;;;1.75;0.00;;;;;;;;5000626;28;10619;-73
2023/01/13 09:07:18;;;;;;;;;2.00;0.50;;;;;;;;4996689;28;10613;-72
2023/01/13 09:09:46;;;;;;;;;1.25;1.25;;;;;;;;4997022;28;10598;-74
2023/01/13 09:15:01;;;;;;;;;0.00;0.00;;;;;;;;4997452;28;10545;-73
2023/01/13 09:17:28;;;;;;;;;2.00;1.00;;;;;;;;4998995;28;10622;-74
2023/01/13 09:19:56;;;;;;;;;0.50;0.50;;;;;;;;5002161;28;11447;-73
2023/01/13 09:22:26;;;;;;;;;1.00;1.00;;;;;;;;5002383;28;11317;-74
2023/01/13 09:24:53;;;;;;;;;1.00;0.00;;;;;;;;5001559;28;10620;-74
2023/01/13 09:27:25;;;;;;;;;0.75;0.00;;;;;;;;5001462;28;10525;-74
2023/01/13 09:29:52;;;;;;;;;0.25;0.25;;;;;;;;5000230;28;10388;-74
2023/01/13 09:32:19;;;;;;;;;4.00;1.25;;;;;;;;5001256;28;10539;-74
2023/01/13 09:35:00;;;;;;;;;1.00;1.00;;;;;;;;4998434;28;10368;-73
2023/01/13 09:37:28;;;;;;;;;1.00;1.00;;;;;;;;4996596;28;10411;-74
2023/01/13 09:39:56;;;;;;;;;2.00;1.00;;;;;;;;4997471;28;10472;-74
2023/01/13 09:45:20;;;;;;;;;1.00;1.00;;;;;;;;4997609;28;10300;-74
2023/01/13 09:47:54;;;;;;;;;1.00;1.00;;;;;;;;4999010;28;10163;-74
2023/01/13 09:50:46;;;;;;;;;2.00;2.00;;;;;;;;4998775;28;10232;-74
2023/01/13 09:53:18;;;;;;;;;2.50;1.00;;;;;;;;4997850;28;10326;-74
2023/01/13 09:55:46;;;;;;;;;3.00;2.00;;;;;;;;5000491;28;10182;-74
2023/01/13 09:58:18;;;;;;;;;3.50;0.00;;;;;;;;5000810;28;10102;-73
2023/01/13 10:00:49;;;;;;;;;4.00;1.00;;;;;;;;4998507;28;10047;-74
2023/01/13 10:03:23;;;;;;;;;4.00;2.50;;;;;;;;4997319;28;10165;-74
2023/01/13 10:05:58;;;;;;;;;2.75;1.00;;;;;;;;4999564;28;10164;-73
2023/01/13 10:08:29;;;;;;;;;3.00;1.00;;;;;;;;5000068;28;11043;-73
2023/01/13 10:10:58;;;;;;;;;1.00;1.00;;;;;;;;4998498;28;10376;-74
2023/01/13 10:13:27;;;;;;;;;3.50;3.00;;;;;;;;5001705;28;10081;-74
2023/01/13 10:16:17;;;;;;;;;0.25;0.25;;;;;;;;4998079;28;10127;-73
2023/01/13 10:18:57;;;;;;;;;3.25;0.00;;;;;;;;4994210;28;9944;-74
2023/01/13 10:22:00;;;;;;;;;4.00;1.00;;;;;;;;4999265;28;10010;-74
2023/01/13 10:24:33;;;;;;;;;3.25;0.00;;;;;;;;4997566;28;10030;-74
2023/01/13 10:27:04;;;;;;;;;2.50;1.00;;;;;;;;5000842;28;9998;-73
2023/01/13 10:29:37;;;;;;;;;3.75;1.50;;;;;;;;4999584;28;9979;-75
2023/01/13 10:32:05;;;;;;;;;1.00;0.00;;;;;;;;5002078;28;9978;-74
2023/01/13 10:34:33;;;;;;;;;0.75;0.75;;;;;;;;4983223;28;10008;-74
2023/01/13 10:37:05;;;;;;;;;1.00;1.00;;;;;;;;5000708;28;9960;-76
2023/01/13 10:39:44;;;;;;;;;2.50;1.00;;;;;;;;4982117;28;10370;-75
2023/01/13 10:42:15;;;;;;;;;1.00;1.00;;;;;;;;4996948;28;9943;-76
2023/01/13 10:44:55;;;;;;;;;1.00;0.50;;;;;;;;4999780;28;10418;-76
2023/01/13 10:47:26;;;;;;;;;1.00;1.00;;;;;;;;4999473;28;9932;-75
2023/01/13 10:50:23;;;;;;;;;1.50;1.00;;;;;;;;5000984;28;10002;-76
2023/01/13 10:52:59;;;;;;;;;0.75;0.75;;;;;;;;4999135;28;10240;-75
2023/01/13 10:55:29;;;;;;;;;0.00;0.00;;;;;;;;4998389;28;10022;-76
2023/01/13 10:57:58;;;;;;;;;1.25;1.00;;;;;;;;5000417;28;10219;-77
2023/01/13 11:00:32;;;;;;;;;1.00;1.00;;;;;;;;4999505;28;10020;-75
2023/01/13 11:03:17;;;;;;;;;4.50;2.00;;;;;;;;5000229;28;10228;-76
2023/01/13 11:05:54;;;;;;;;;3.50;1.75;;;;;;;;5000194;28;10859;-75
2023/01/13 11:08:23;;;;;;;;;4.00;1.00;;;;;;;;4998856;28;10011;-75
2023/01/13 11:10:53;;;;;;;;;3.00;1.00;;;;;;;;5000198;28;10147;-75
2023/01/13 11:13:28;;;;;;;;;2.50;1.75;;;;;;;;4999225;28;10091;-75
2023/01/13 11:16:01;;;;;;;;;2.25;0.75;;;;;;;;4998136;28;10536;-73
2023/01/13 11:18:39;;;;;;;;;0.00;0.00;;;;;;;;4997471;28;9934;-75
2023/01/13 11:21:12;;;;;;;;;1.00;1.00;;;;;;;;5001813;28;9535;-75
2023/01/13 11:23:45;;;;;;;;;1.50;1.00;;;;;;;;4999846;28;9627;-73
2023/01/13 11:26:16;;;;;;;;;0.75;0.75;;;;;;;;4998679;28;9528;-76
2023/01/13 11:28:49;;;;;;;;;1.25;0.75;;;;;;;;5000068;28;9553;-72
2023/01/13 11:31:23;;;;;;;;;2.75;1.00;;;;;;;;5001797;28;9587;-74
2023/01/13 11:33:55;;;;;;;;;1.00;1.00;;;;;;;;4987200;28;9560;-75
2023/01/13 11:36:26;;;;;;;;;1.00;1.00;;;;;;;;5003695;28;10393;-74
2023/01/13 11:38:56;;;;;;;;;0.00;0.00;;;;;;;;5003491;28;9503;-75
2023/01/13 11:41:32;;;;;;;;;0.50;0.50;;;;;;;;5003770;28;9474;-74
2023/01/13 11:44:12;;;;;;;;;2.67;1.00;;;;;;;;5003927;28;9577;-74
2023/01/13 11:46:41;;;;;;;;;2.67;0.67;;;;;;;;5003407;28;9265;-73
2023/01/13 11:49:16;;;;;;;;;2.33;1.00;;;;;;;;5001979;28;9342;-71
2023/01/13 11:51:48;;;;;;;;;2.00;2.00;;;;;;;;4998012;28;9183;-75
2023/01/13 11:54:33;;;;;;;;;0.00;0.00;;;;;;;;5001704;28;9160;-74
2023/01/13 11:57:24;;;;;;;;;1.00;1.00;;;;;;;;4999313;28;10092;-74
2023/01/13 12:00:08;;;;;;;;;0.00;0.00;;;;;;;;5000354;28;9168;-73
2023/01/13 12:02:55;;;;;;;;;2.00;0.33;;;;;;;;5021278;28;9026;-72
2023/01/13 12:05:29;;;;;;;;;1.00;1.00;;;;;;;;5023091;28;9089;-74
2023/01/13 12:08:10;;;;;;;;;0.00;0.00;;;;;;;;5024185;28;9305;-74
2023/01/13 12:10:54;;;;;;;;;1.00;1.00;;;;;;;;5021812;28;9081;-74
2023/01/13 12:13:29;;;;;;;;;2.33;0.67;;;;;;;;5021976;28;9080;-74
2023/01/13 12:16:09;;;;;;;;;1.00;1.00;;;;;;;;5021546;28;9231;-75
2023/01/13 12:18:51;;;;;;;;;1.33;0.33;;;;;;;;5019780;28;9344;-74
2023/01/13 12:21:21;;;;;;;;;3.00;1.00;;;;;;;;5022472;28;9119;-75
2023/01/13 12:23:58;;;;;;;;;0.00;0.00;;;;;;;;5021395;28;9292;-75
2023/01/13 12:26:26;;;;;;;;;2.00;0.00;;;;;;;;5021456;28;9065;-77
2023/01/13 12:28:56;;;;;;;;;1.00;1.00;;;;;;;;5004121;28;9130;-73
2023/01/13 12:31:24;;;;;;;;;2.67;0.67;;;;;;;;5020796;28;9276;-75
2023/01/13 12:34:04;;;;;;;;;2.00;0.00;;;;;;;;5019959;28;9247;-74
2023/01/13 12:36:39;;;;;;;;;0.00;0.00;;;;;;;;5020835;28;9440;-76
2023/01/13 12:39:17;;;;;;;;;0.00;0.00;;;;;;;;5022916;28;9412;-75
2023/01/13 12:44:34;;;;;;;;;1.25;1.00;;;;;;;;5020464;28;9519;-74
2023/01/13 12:47:02;;;;;;;;;0.00;0.00;;;;;;;;5020256;28;9454;-74
2023/01/13 12:49:32;;;;;;;;;0.50;0.50;;;;;;;;5020591;28;9563;-76
2023/01/13 12:52:16;;;;;;;;;3.00;0.00;;;;;;;;5021710;28;9401;-75
2023/01/13 12:55:18;;;;;;;;;1.33;0.00;;;;;;;;5019630;28;9331;-75
2023/01/13 12:58:01;;;;;;;;;0.00;0.00;;;;;;;;5020838;28;9279;-75
2023/01/13 13:00:33;;;;;;;;;1.00;0.00;;;;;;;;5020423;28;9107;-76
2023/01/13 13:03:32;;;;;;;;;2.00;1.00;;;;;;;;5006611;28;9094;-75
2023/01/13 13:06:10;;;;;;;;;1.33;0.00;;;;;;;;5005345;28;9053;-76
2023/01/13 13:08:51;;;;;;;;;0.00;0.00;;;;;;;;5003917;28;9032;-77
2023/01/13 13:15:01;;;;;;;;;1.50;0.25;;;;;;;;5003859;28;8937;-76
2023/01/13 13:17:43;;;;;;;;;2.67;1.00;;;;;;;;5001964;28;8892;-77
2023/01/13 13:20:43;;;;;;;;;3.00;1.00;;;;;;;;5002262;28;8945;-76
2023/01/13 13:23:48;;;;;;;;;0.00;0.00;;;;;;;;5002849;28;8848;-76
2023/01/13 13:26:29;;;;;;;;;3.00;1.67;;;;;;;;5001116;28;8904;-77
2023/01/13 13:29:10;;;;;;;;;0.00;0.00;;;;;;;;5002431;28;8965;-76
2023/01/13 13:31:54;;;;;;;;;1.00;0.00;;;;;;;;4983010;28;8887;-77
2023/01/13 13:34:29;;;;;;;;;3.00;1.00;;;;;;;;5000012;28;9742;-76
2023/01/13 13:37:10;;;;;;;;;1.00;1.00;;;;;;;;4998675;28;9029;-77
2023/01/13 13:48:22;;;;;;;;;4.00;1.00;;;;;;;;4999399;28;8832;-77
2023/01/13 13:50:55;;;;;;;;;5.00;1.67;;;;;;;;4997720;28;8991;-77
2023/01/13 13:53:23;;;;;;;;;2.00;0.00;;;;;;;;4996499;28;9022;-76
2023/01/13 13:55:58;;;;;;;;;2.25;0.75;;;;;;;;4998935;28;8856;-77
2023/01/13 13:58:28;;;;;;;;;2.67;0.00;;;;;;;;4996552;28;8867;-77
2023/01/13 14:00:57;;;;;;;;;1.33;1.33;;;;;;;;5000302;28;8885;-77
2023/01/13 14:03:26;;;;;;;;;1.00;1.00;;;;;;;;4999869;28;8943;-77
2023/01/13 14:05:56;;;;;;;;;1.00;1.00;;;;;;;;4997169;28;8894;-77
2023/01/13 14:08:24;;;;;;;;;1.00;1.00;;;;;;;;4998250;28;9084;-77
2023/01/13 14:10:55;;;;;;;;;2.75;1.50;;;;;;;;4999563;28;9121;-76
2023/01/13 14:13:24;;;;;;;;;3.50;0.25;;;;;;;;4998962;28;9309;-76
2023/01/13 14:15:58;;;;;;;;;0.50;0.50;;;;;;;;4996867;28;8887;-76
2023/01/13 14:18:26;;;;;;;;;3.33;1.00;;;;;;;;4997760;28;8848;-76
2023/01/13 14:20:56;;;;;;;;;2.25;0.75;;;;;;;;5000157;28;8964;-77
2023/01/13 14:23:27;;;;;;;;;2.33;1.00;;;;;;;;4977315;28;8899;-77
2023/01/13 14:25:55;;;;;;;;;1.00;0.00;;;;;;;;4998153;28;9767;-76
2023/01/13 14:28:25;;;;;;;;;3.33;1.00;;;;;;;;4998747;28;8879;-76
2023/01/13 14:30:53;;;;;;;;;2.00;0.00;;;;;;;;4996442;28;9179;-76
2023/01/13 14:33:33;;;;;;;;;0.67;0.67;;;;;;;;4998294;28;8987;-76
2023/01/13 14:36:22;;;;;;;;;1.00;1.00;;;;;;;;4998346;28;8962;-75
2023/01/13 14:39:11;;;;;;;;;3.00;1.33;;;;;;;;4998916;28;9118;-74
2023/01/13 14:41:46;;;;;;;;;0.67;0.67;;;;;;;;5000922;28;9094;-74
2023/01/13 14:44:18;;;;;;;;;0.33;0.33;;;;;;;;4979779;28;9534;-76
2023/01/13 14:46:46;;;;;;;;;4.33;1.00;;;;;;;;5000565;28;9009;-74
2023/01/13 14:49:24;;;;;;;;;0.67;0.67;;;;;;;;4999228;28;9289;-75
2023/01/13 14:51:52;;;;;;;;;3.67;2.00;;;;;;;;5001055;28;9208;-75
2023/01/13 14:54:41;;;;;;;;;4.00;1.67;;;;;;;;5001166;28;10218;-75
2023/01/13 14:57:14;;;;;;;;;1.00;1.00;;;;;;;;4999994;28;9321;-75
2023/01/13 14:59:44;;;;;;;;;1.33;1.33;;;;;;;;4999614;28;9441;-75
2023/01/13 15:02:39;;;;;;;;;2.25;1.00;;;;;;;;4998534;28;9300;-75
2023/01/13 15:05:34;;;;;;;;;2.50;1.00;;;;;;;;4969167;28;10335;-75
2023/01/13 15:08:09;;;;;;;;;1.00;1.00;;;;;;;;5000699;28;9395;-75
2023/01/13 15:10:44;;;;;;;;;1.00;1.00;;;;;;;;5002396;28;9542;-75
2023/01/13 15:13:23;;;;;;;;;3.00;1.25;;;;;;;;5003627;28;9545;-75
2023/01/13 15:15:53;;;;;;;;;3.00;1.00;;;;;;;;5002657;28;9468;-74
2023/01/13 15:18:20;;;;;;;;;0.50;0.25;;;;;;;;5003219;28;9521;-73
2023/01/13 15:20:51;;;;;;;;;3.25;1.50;;;;;;;;5002840;28;9469;-73
2023/01/13 15:23:18;;;;;;;;;1.00;1.00;;;;;;;;5003340;28;9634;-74
2023/01/13 15:25:46;;;;;;;;;3.00;2.00;;;;;;;;5001719;28;9793;-73
2023/01/13 15:28:18;;;;;;;;;2.75;0.00;;;;;;;;5002170;28;9754;-74
2023/01/13 15:30:46;;;;;;;;;4.50;1.25;;;;;;;;5003030;28;9592;-73
2023/01/13 15:33:14;;;;;;;;;2.75;1.00;;;;;;;;5003596;28;10147;-73
2023/01/13 15:35:43;;;;;;;;;0.50;0.50;;;;;;;;4963917;28;9895;-74
2023/01/13 15:38:13;;;;;;;;;2.00;0.50;;;;;;;;4963275;28;9762;-74
2023/01/13 15:40:41;;;;;;;;;1.00;1.00;;;;;;;;4965057;28;9862;-74
2023/01/13 15:48:43;;;;;;;;;1.75;0.00;;;;;;;;4961402;28;9766;-73
2023/01/13 15:51:12;;;;;;;;;2.00;0.00;;;;;;;;4960941;28;9966;-73
2023/01/13 15:53:41;;;;;;;;;1.00;1.00;;;;;;;;4961291;28;9873;-73
2023/01/13 15:56:19;;;;;;;;;3.00;1.25;;;;;;;;4964520;28;10040;-74
2023/01/13 15:58:46;;;;;;;;;2.25;1.00;;;;;;;;4962356;28;10129;-74
2023/01/13 16:01:14;;;;;;;;;2.25;2.00;;;;;;;;4962835;28;10091;-73
2023/01/13 16:03:41;;;;;;;;;2.25;1.00;;;;;;;;4965769;28;10082;-74
2023/01/13 16:06:16;;;;;;;;;4.00;0.00;;;;;;;;4962213;28;10920;-74
2023/01/13 16:08:45;;;;;;;;;0.75;0.75;;;;;;;;4959401;28;10117;-73
2023/01/13 16:11:13;;;;;;;;;3.00;0.00;;;;;;;;4962027;28;10870;-74
2023/01/13 16:13:40;;;;;;;;;1.00;0.50;;;;;;;;4963618;28;10106;-73
2023/01/13 16:16:17;;;;;;;;;0.75;0.75;;;;;;;;4960965;28;10036;-74
2023/01/13 16:18:45;;;;;;;;;0.00;0.00;;;;;;;;4964820;28;10065;-73
2023/01/13 16:21:14;;;;;;;;;0.33;0.33;;;;;;;;4962838;28;10063;-73
2023/01/13 16:23:42;;;;;;;;;1.00;1.00;;;;;;;;4962916;28;10124;-73
2023/01/13 16:26:20;;;;;;;;;1.25;1.25;;;;;;;;4960509;28;9980;-73